Time;durP1;ratioP1;P1;durP2;ratioP2;P2;SDS_P1;SDS_P2;PMS_P1;PMS_P2;Temp;Humidity;BMP_temperature;BMP_pressure;BME280_temperature;BME280_humidity;BME280_pressure;Samples;Min_cycle;Max_cycle;Signal;HPM_P1;HPM_P2
2023/06/27 00:02:12;;;;;;;4.85;2.92;;;;;;;-145.07;100.00;61000.34;5096595;28;20134;-50
2023/06/27 00:04:39;;;;;;;8.75;2.30;;;;;;;-145.07;100.00;61000.34;5095887;28;20051;-50
2023/06/27 00:07:06;;;;;;;8.90;2.30;;;;;;;-145.07;100.00;61000.34;5100130;28;20101;-50
2023/06/27 00:09:33;;;;;;;8.00;2.72;;;;;;;-145.07;100.00;61000.34;5097303;28;20044;-50
2023/06/27 00:11:59;;;;;;;6.88;2.50;;;;;;;-145.07;100.00;61000.34;5095174;28;20408;-50
2023/06/27 00:14:26;;;;;;;10.65;2.53;;;;;;;-145.07;100.00;61000.34;5102541;28;20130;-50
2023/06/27 00:16:52;;;;;;;6.70;2.17;;;;;;;-145.07;100.00;61000.34;5100730;28;20047;-50
2023/06/27 00:19:19;;;;;;;6.30;2.20;;;;;;;-145.07;100.00;61000.34;5099019;28;20147;-50
2023/06/27 00:21:45;;;;;;;5.50;2.70;;;;;;;-145.07;100.00;61000.34;5097254;28;20056;-50
2023/06/27 00:24:12;;;;;;;7.82;2.03;;;;;;;-145.07;100.00;61000.34;5110710;28;20487;-50
2023/06/27 00:26:39;;;;;;;12.88;2.45;;;;;;;-145.07;100.00;61000.34;5110179;28;20040;-51
2023/06/27 00:29:05;;;;;;;5.32;2.35;;;;;;;-145.07;100.00;61000.34;5095470;28;20082;-52
2023/06/27 00:31:32;;;;;;;8.23;2.70;;;;;;;-145.07;100.00;61000.34;5109539;28;20051;-50
2023/06/27 00:33:59;;;;;;;18.02;3.55;;;;;;;-145.07;100.00;61000.34;5096475;28;20044;-50
2023/06/27 00:36:26;;;;;;;10.75;2.53;;;;;;;-145.07;100.00;61000.34;5096693;28;20050;-52
2023/06/27 00:38:52;;;;;;;7.40;2.55;;;;;;;-145.07;100.00;61000.34;5096554;28;20054;-49
2023/06/27 00:41:19;;;;;;;13.10;2.90;;;;;;;-145.07;100.00;61000.34;5094871;28;20082;-50
2023/06/27 00:43:46;;;;;;;5.70;2.40;;;;;;;-145.07;100.00;61000.34;5095244;28;20054;-49
2023/06/27 00:46:24;;;;;;;5.82;2.70;;;;;;;-145.07;100.00;61000.34;5104951;28;20126;-51
2023/06/27 00:48:50;;;;;;;10.20;2.78;;;;;;;-145.07;100.00;61000.34;5110867;28;20048;-50
2023/06/27 00:51:17;;;;;;;9.50;2.47;;;;;;;-145.07;100.00;61000.34;5098817;28;20055;-50
2023/06/27 00:53:44;;;;;;;14.60;3.78;;;;;;;-145.07;100.00;61000.34;5102302;28;20058;-50
2023/06/27 00:56:10;;;;;;;8.55;3.05;;;;;;;-145.07;100.00;61000.34;5097611;28;20044;-50
2023/06/27 00:58:37;;;;;;;10.73;2.97;;;;;;;-145.07;100.00;61000.34;5097399;28;20051;-50
2023/06/27 01:01:04;;;;;;;9.45;3.72;;;;;;;-145.07;100.00;61000.34;5097860;28;20151;-50
2023/06/27 01:03:32;;;;;;;11.45;3.15;;;;;;;-145.07;100.00;61000.34;5109495;28;20063;-50
2023/06/27 01:06:08;;;;;;;10.70;2.47;;;;;;;-145.07;100.00;61000.34;5103387;28;20130;-50
2023/06/27 01:08:41;;;;;;;6.97;2.90;;;;;;;-145.07;100.00;61000.34;5112350;28;20048;-50
2023/06/27 01:11:22;;;;;;;12.25;3.42;;;;;;;-145.07;100.00;61000.34;5106634;28;20100;-50
2023/06/27 01:13:50;;;;;;;7.38;3.30;;;;;;;-145.07;100.00;61000.34;5109301;28;20144;-50
2023/06/27 01:16:21;;;;;;;8.77;3.72;;;;;;;-145.07;100.00;61000.34;5098151;28;20039;-50
2023/06/27 01:18:50;;;;;;;9.45;3.17;;;;;;;-145.07;100.00;61000.34;5094359;28;20048;-50
2023/06/27 01:21:20;;;;;;;7.20;2.65;;;;;;;-145.07;100.00;61000.34;5121236;27;20048;-51
2023/06/27 01:24:06;;;;;;;9.67;3.93;;;;;;;-145.07;100.00;61000.34;5100382;28;20059;-51
2023/06/27 01:26:33;;;;;;;7.78;2.90;;;;;;;-145.07;100.00;61000.34;5095574;28;20326;-51
2023/06/27 01:29:01;;;;;;;9.77;3.33;;;;;;;-145.07;100.00;61000.34;5095008;28;20054;-51
2023/06/27 01:31:37;;;;;;;6.05;2.67;;;;;;;-145.07;100.00;61000.34;5105609;28;20048;-53
2023/06/27 01:34:45;;;;;;;7.72;3.35;;;;;;;-145.07;100.00;61000.34;5110960;28;20108;-50
2023/06/27 01:37:25;;;;;;;9.40;3.05;;;;;;;-145.07;100.00;61000.34;5096811;28;20100;-51
2023/06/27 01:40:02;;;;;;;8.48;2.65;;;;;;;-145.07;100.00;61000.34;5097725;28;20070;-52
2023/06/27 01:42:37;;;;;;;8.50;3.55;;;;;;;-145.07;100.00;61000.34;5094558;28;20040;-50
2023/06/27 01:45:05;;;;;;;7.72;3.15;;;;;;;-145.07;100.00;61000.34;5104956;28;20736;-50
2023/06/27 01:47:36;;;;;;;8.80;4.10;;;;;;;-145.07;100.00;61000.34;5098229;28;20052;-50
2023/06/27 01:50:03;;;;;;;;;;;;;;;-145.07;100.00;61000.34;5101585;28;20101;-50
2023/06/27 01:52:30;;;;;;;8.30;3.13;;;;;;;-145.07;100.00;61000.34;5101259;28;20006;-50
2023/06/27 01:54:56;;;;;;;8.65;4.18;;;;;;;-145.07;100.00;61000.34;5105521;28;20044;-50
2023/06/27 01:57:23;;;;;;;9.10;2.92;;;;;;;-145.07;100.00;61000.34;5106757;28;20068;-50
2023/06/27 01:59:49;;;;;;;10.60;3.17;;;;;;;-145.07;100.00;61000.34;5111090;28;20056;-50
2023/06/27 02:02:16;;;;;;;7.57;3.47;;;;;;;-145.07;100.00;61000.34;5109191;28;20546;-50
2023/06/27 02:04:42;;;;;;;10.85;3.78;;;;;;;-145.07;100.00;61000.34;5112408;28;20707;-51
2023/06/27 02:07:09;;;;;;;7.68;2.97;;;;;;;-145.07;100.00;61000.34;5094954;28;20436;-50
2023/06/27 02:09:36;;;;;;;10.27;3.63;;;;;;;-145.07;100.00;61000.34;5100788;28;20045;-51
2023/06/27 02:12:04;;;;;;;13.45;3.15;;;;;;;-145.07;100.00;61000.34;5096899;28;20051;-50
2023/06/27 02:14:31;;;;;;;7.72;3.28;;;;;;;-145.07;100.00;61000.34;5096951;28;20384;-50
2023/06/27 02:16:58;;;;;;;7.47;3.17;;;;;;;-145.07;100.00;61000.34;5089375;28;20052;-50
2023/06/27 02:19:24;;;;;;;7.57;3.08;;;;;;;-145.07;100.00;61000.34;5095384;28;20522;-51
2023/06/27 02:21:51;;;;;;;13.13;3.45;;;;;;;-145.07;100.00;61000.34;5098129;28;20078;-50
2023/06/27 02:24:18;;;;;;;13.23;2.95;;;;;;;-145.07;100.00;61000.34;5094341;28;20051;-51
2023/06/27 02:26:44;;;;;;;17.13;3.95;;;;;;;-145.07;100.00;61000.34;5099563;28;20140;-51
2023/06/27 02:29:11;;;;;;;7.47;3.10;;;;;;;-145.07;100.00;61000.34;5097470;28;20076;-50
2023/06/27 02:31:38;;;;;;;15.52;4.38;;;;;;;-145.07;100.00;61000.34;5091494;28;20055;-50
2023/06/27 02:34:05;;;;;;;12.52;3.42;;;;;;;-145.07;100.00;61000.34;5097476;28;20059;-50
2023/06/27 02:36:32;;;;;;;12.50;3.97;;;;;;;-145.07;100.00;61000.34;5096855;28;20054;-50
2023/06/27 02:39:00;;;;;;;11.90;3.72;;;;;;;-145.07;100.00;61000.34;5095992;28;20048;-51
2023/06/27 02:41:27;;;;;;;18.75;4.20;;;;;;;-145.07;100.00;61000.34;5097902;28;20496;-50
2023/06/27 02:43:53;;;;;;;13.65;3.90;;;;;;;-145.07;100.00;61000.34;5100856;28;20137;-50
2023/06/27 02:46:20;;;;;;;15.68;3.40;;;;;;;-145.07;100.00;61000.34;5096913;28;20044;-50
2023/06/27 02:48:47;;;;;;;17.40;4.07;;;;;;;-145.07;100.00;61000.34;5098031;28;20043;-50
2023/06/27 02:51:13;;;;;;;8.27;4.68;;;;;;;-145.07;100.00;61000.34;5098118;28;20058;-50
2023/06/27 02:53:40;;;;;;;18.38;5.57;;;;;;;-145.07;100.00;61000.34;5096248;28;20051;-50
2023/06/27 02:56:07;;;;;;;13.02;4.18;;;;;;;-145.07;100.00;61000.34;5093155;28;20044;-50
2023/06/27 02:58:34;;;;;;;13.07;3.85;;;;;;;-145.07;100.00;61000.34;5102061;28;20463;-50
2023/06/27 03:01:06;;;;;;;18.98;4.82;;;;;;;-145.07;100.00;61000.34;5097859;28;20075;-50
2023/06/27 03:03:33;;;;;;;19.42;3.85;;;;;;;-145.07;100.00;61000.34;5101282;28;20052;-50
2023/06/27 03:06:08;;;;;;;10.70;3.47;;;;;;;-145.07;100.00;61000.34;5094050;28;20064;-50
2023/06/27 03:08:39;;;;;;;10.13;3.33;;;;;;;-145.07;100.00;61000.34;5100946;28;20105;-52
2023/06/27 03:11:05;;;;;;;14.33;4.00;;;;;;;-145.07;100.00;61000.34;5102728;28;20044;-50
2023/06/27 03:13:32;;;;;;;18.27;3.97;;;;;;;-145.07;100.00;61000.34;5095593;28;20445;-50
2023/06/27 03:16:00;;;;;;;12.68;3.88;;;;;;;-145.07;100.00;61000.34;5100395;28;20466;-50
2023/06/27 03:18:27;;;;;;;9.50;3.78;;;;;;;-145.07;100.00;61000.34;5099304;28;20052;-50
2023/06/27 03:20:54;;;;;;;7.47;4.07;;;;;;;-145.07;100.00;61000.34;5105963;28;20048;-50
2023/06/27 03:23:20;;;;;;;14.90;4.85;;;;;;;-145.07;100.00;61000.34;5101750;28;20539;-51
2023/06/27 03:25:47;;;;;;;13.23;4.18;;;;;;;-145.07;100.00;61000.34;5104460;28;20040;-50
2023/06/27 03:28:13;;;;;;;14.45;4.43;;;;;;;-145.07;100.00;61000.34;5106292;28;20071;-50
2023/06/27 03:30:43;;;;;;;14.68;3.85;;;;;;;-145.07;100.00;61000.34;5099857;28;20050;-51
2023/06/27 03:33:10;;;;;;;11.98;3.72;;;;;;;-145.07;100.00;61000.34;5106072;28;20072;-50
2023/06/27 03:35:37;;;;;;;12.18;4.15;;;;;;;-145.07;100.00;61000.34;5107426;28;20534;-50
2023/06/27 03:38:04;;;;;;;15.20;4.20;;;;;;;-145.07;100.00;61000.34;5103361;28;20046;-50
2023/06/27 03:40:31;;;;;;;18.63;4.57;;;;;;;-145.07;100.00;61000.34;5107395;28;20043;-51
2023/06/27 03:42:58;;;;;;;18.25;3.67;;;;;;;-145.07;100.00;61000.34;5099598;28;20064;-50
2023/06/27 03:45:24;;;;;;;11.77;3.83;;;;;;;-145.07;100.00;61000.34;5099418;28;20147;-51
2023/06/27 03:47:51;;;;;;;13.95;4.13;;;;;;;-145.07;100.00;61000.34;5101973;28;20070;-50
2023/06/27 03:50:17;;;;;;;12.70;4.15;;;;;;;-145.07;100.00;61000.34;5093821;28;20052;-50
2023/06/27 03:52:44;;;;;;;16.35;4.35;;;;;;;-145.07;100.00;61000.34;5108404;28;20471;-50
2023/06/27 03:55:11;;;;;;;19.42;5.20;;;;;;;-145.07;100.00;61000.34;5104751;28;20044;-50
2023/06/27 03:57:37;;;;;;;8.77;3.78;;;;;;;-145.07;100.00;61000.34;5101687;28;20533;-50
2023/06/27 04:00:07;;;;;;;21.63;5.38;;;;;;;-145.07;100.00;61000.34;5112468;28;20894;-50
2023/06/27 04:02:34;;;;;;;21.63;4.03;;;;;;;-145.07;100.00;61000.34;5096332;28;20048;-50
2023/06/27 04:05:00;;;;;;;14.20;5.00;;;;;;;-145.07;100.00;61000.34;5101189;28;20052;-50
2023/06/27 04:07:27;;;;;;;19.13;4.97;;;;;;;-145.07;100.00;61000.34;5095506;28;20127;-51
2023/06/27 04:09:54;;;;;;;27.48;6.28;;;;;;;-145.07;100.00;61000.34;5106685;28;20043;-50
2023/06/27 04:12:21;;;;;;;19.35;5.05;;;;;;;-145.07;100.00;61000.34;5118029;28;20083;-52
2023/06/27 04:14:47;;;;;;;17.23;4.15;;;;;;;-145.07;100.00;61000.34;5109999;28;20579;-50
2023/06/27 04:17:14;;;;;;;12.57;3.70;;;;;;;-145.07;100.00;61000.34;5100450;28;20040;-50
2023/06/27 04:19:40;;;;;;;13.13;3.67;;;;;;;-145.07;100.00;61000.34;5102147;28;20067;-50
2023/06/27 04:22:07;;;;;;;15.05;4.57;;;;;;;-145.07;100.00;61000.34;5107346;28;20403;-50
2023/06/27 04:24:33;;;;;;;22.67;5.22;;;;;;;-145.07;100.00;61000.34;5107465;28;20052;-50
2023/06/27 04:27:00;;;;;;;26.05;4.15;;;;;;;-145.07;100.00;61000.34;5115404;28;20052;-50
2023/06/27 04:29:26;;;;;;;16.15;4.20;;;;;;;-145.07;100.00;61000.34;5101433;28;20426;-50
2023/06/27 04:31:53;;;;;;;9.48;3.03;;;;;;;-145.07;100.00;61000.34;5109446;28;20056;-50
2023/06/27 04:34:20;;;;;;;11.32;3.90;;;;;;;-145.07;100.00;61000.34;5112244;28;20424;-50
2023/06/27 04:36:46;;;;;;;14.93;4.07;;;;;;;-145.07;100.00;61000.34;5109496;28;20142;-50
2023/06/27 04:39:12;;;;;;;15.00;3.65;;;;;;;-145.07;100.00;61000.34;5114990;28;20133;-50
2023/06/27 04:41:39;;;;;;;10.73;3.22;;;;;;;-145.07;100.00;61000.34;5118957;28;20143;-51
2023/06/27 04:44:05;;;;;;;26.85;3.63;;;;;;;-145.07;100.00;61000.34;5117832;28;20176;-50
2023/06/27 04:46:32;;;;;;;18.42;4.00;;;;;;;-145.07;100.00;61000.34;5105972;27;20423;-51
2023/06/27 04:49:00;;;;;;;16.42;4.38;;;;;;;-145.07;100.00;61000.34;5119425;27;20452;-50
2023/06/27 04:51:28;;;;;;;12.00;3.85;;;;;;;-145.07;100.00;61000.34;5098999;28;20100;-50
2023/06/27 04:53:55;;;;;;;16.73;3.67;;;;;;;-145.07;100.00;61000.34;5114307;28;20158;-50
2023/06/27 04:56:22;;;;;;;21.48;3.88;;;;;;;-145.07;100.00;61000.34;5111130;28;20358;-50
2023/06/27 04:58:49;;;;;;;10.68;3.42;;;;;;;-145.07;100.00;61000.34;5095531;28;20355;-50
2023/06/27 05:01:15;;;;;;;15.80;4.03;;;;;;;-145.07;100.00;61000.34;5102788;28;20130;-50
2023/06/27 05:03:42;;;;;;;17.83;4.10;;;;;;;-145.07;100.00;61000.34;5102739;28;20056;-50
2023/06/27 05:06:08;;;;;;;12.30;2.97;;;;;;;-145.07;100.00;61000.34;5111869;27;20055;-50
2023/06/27 05:08:36;;;;;;;20.83;3.58;;;;;;;-145.07;100.00;61000.34;5113576;28;20104;-50
2023/06/27 05:11:04;;;;;;;23.67;3.35;;;;;;;-145.07;100.00;61000.34;5115140;28;20055;-50
2023/06/27 05:13:31;;;;;;;8.70;2.95;;;;;;;-145.07;100.00;61000.34;5101867;28;20171;-51
2023/06/27 05:15:57;;;;;;;9.88;3.35;;;;;;;-145.07;100.00;61000.34;5100355;28;20048;-50
2023/06/27 05:18:25;;;;;;;14.63;4.00;;;;;;;-145.07;100.00;61000.34;5115099;28;20126;-51
2023/06/27 05:20:53;;;;;;;9.80;3.15;;;;;;;-145.07;100.00;61000.34;5114664;28;20135;-51
2023/06/27 05:23:21;;;;;;;15.50;4.00;;;;;;;-145.07;100.00;61000.34;5107445;28;20481;-50
2023/06/27 05:25:48;;;;;;;10.85;3.08;;;;;;;-145.07;100.00;61000.34;5107352;28;20044;-51
2023/06/27 05:28:15;;;;;;;13.73;3.58;;;;;;;-145.07;100.00;61000.34;5097665;28;20044;-51
2023/06/27 05:30:42;;;;;;;15.27;3.55;;;;;;;-145.07;100.00;61000.34;5106915;28;20115;-51
2023/06/27 05:33:08;;;;;;;10.50;2.72;;;;;;;-145.07;100.00;61000.34;5096563;28;20048;-51
2023/06/27 05:35:35;;;;;;;10.90;3.25;;;;;;;-145.07;100.00;61000.34;5102555;28;20390;-51
2023/06/27 05:38:01;;;;;;;15.68;3.47;;;;;;;-145.07;100.00;61000.34;5099419;28;20040;-51
2023/06/27 05:40:29;;;;;;;13.68;3.60;;;;;;;-145.07;100.00;61000.34;5105802;28;20035;-51
2023/06/27 05:42:55;;;;;;;14.43;3.65;;;;;;;-145.07;100.00;61000.34;5105935;28;20047;-51
2023/06/27 05:45:22;;;;;;;19.15;3.70;;;;;;;-145.07;100.00;61000.34;5097427;28;20135;-51
2023/06/27 05:47:49;;;;;;;11.50;3.30;;;;;;;-145.07;100.00;61000.34;5103137;28;20048;-51
2023/06/27 05:50:16;;;;;;;15.52;3.30;;;;;;;-145.07;100.00;61000.34;5102896;28;20180;-51
2023/06/27 05:52:42;;;;;;;18.75;3.58;;;;;;;-145.07;100.00;61000.34;5106993;28;20083;-51
2023/06/27 05:55:09;;;;;;;12.85;2.65;;;;;;;-145.07;100.00;61000.34;5106314;28;20052;-51
2023/06/27 05:57:35;;;;;;;17.50;3.00;;;;;;;-145.07;100.00;61000.34;5113665;28;20059;-51
2023/06/27 06:00:03;;;;;;;7.63;2.72;;;;;;;-145.07;100.00;61000.34;5109838;28;20138;-51
2023/06/27 06:02:29;;;;;;;14.88;3.13;;;;;;;-145.07;100.00;61000.34;5102665;28;20142;-51
2023/06/27 06:04:56;;;;;;;23.27;3.20;;;;;;;-145.07;100.00;61000.34;5102189;28;20144;-51
2023/06/27 06:07:23;;;;;;;14.48;3.75;;;;;;;-145.07;100.00;61000.34;5105459;28;20059;-51
2023/06/27 06:09:50;;;;;;;16.30;3.60;;;;;;;-145.07;100.00;61000.34;5109241;27;20073;-51
2023/06/27 06:12:16;;;;;;;6.40;2.15;;;;;;;-145.07;100.00;61000.34;5113504;28;20086;-51
2023/06/27 06:14:43;;;;;;;14.18;3.63;;;;;;;-145.07;100.00;61000.34;5093904;28;20048;-51
2023/06/27 06:17:09;;;;;;;12.30;2.65;;;;;;;-145.07;100.00;61000.34;5105135;28;20036;-51
2023/06/27 06:19:36;;;;;;;13.90;2.58;;;;;;;-145.07;100.00;61000.34;5097587;28;20050;-51
2023/06/27 06:22:03;;;;;;;13.55;3.10;;;;;;;-145.07;100.00;61000.34;5107341;28;20051;-51
2023/06/27 06:24:29;;;;;;;14.63;2.95;;;;;;;-145.07;100.00;61000.34;5113216;28;20069;-51
2023/06/27 06:26:56;;;;;;;11.35;2.28;;;;;;;-145.07;100.00;61000.34;5091746;28;20131;-51
2023/06/27 06:29:22;;;;;;;11.98;2.50;;;;;;;-145.07;100.00;61000.34;5092969;28;20418;-51
2023/06/27 06:31:49;;;;;;;17.70;3.33;;;;;;;-145.07;100.00;61000.34;5096559;28;20044;-51
2023/06/27 06:34:15;;;;;;;10.20;2.13;;;;;;;-145.07;100.00;61000.34;5100052;28;20099;-51
2023/06/27 06:36:42;;;;;;;8.73;2.15;;;;;;;-145.07;100.00;61000.34;5094690;28;20086;-51
2023/06/27 06:39:08;;;;;;;21.92;2.85;;;;;;;-145.07;100.00;61000.34;5094294;28;20047;-51
2023/06/27 06:41:35;;;;;;;12.50;2.67;;;;;;;-145.07;100.00;61000.34;5108352;28;20155;-51
2023/06/27 06:44:01;;;;;;;15.10;2.50;;;;;;;-145.07;100.00;61000.34;5101244;28;20083;-51
2023/06/27 06:46:28;;;;;;;16.98;2.67;;;;;;;-145.07;100.00;61000.34;5102689;28;20138;-51
2023/06/27 06:48:55;;;;;;;10.32;2.78;;;;;;;-145.07;100.00;61000.34;5104674;28;20134;-51
2023/06/27 06:51:23;;;;;;;15.15;2.17;;;;;;;-145.07;100.00;61000.34;5092964;28;20055;-50
2023/06/27 06:53:49;;;;;;;7.93;2.08;;;;;;;-145.07;100.00;61000.34;5095065;28;20122;-51
2023/06/27 06:56:16;;;;;;;10.23;2.35;;;;;;;-145.07;100.00;61000.34;5097860;28;20075;-51
2023/06/27 06:58:42;;;;;;;7.45;1.90;;;;;;;-145.07;100.00;61000.34;5101742;28;20109;-50
2023/06/27 07:01:09;;;;;;;6.70;1.83;;;;;;;-145.07;100.00;61000.34;5095581;28;20044;-51
2023/06/27 07:03:36;;;;;;;5.03;2.22;;;;;;;-145.07;100.00;61000.34;5103121;28;20054;-51
2023/06/27 07:06:03;;;;;;;10.57;2.13;;;;;;;-145.07;100.00;61000.34;5108271;28;20101;-50
2023/06/27 07:08:29;;;;;;;8.02;1.70;;;;;;;-145.07;100.00;61000.34;5104419;28;20044;-51
2023/06/27 07:10:56;;;;;;;13.43;2.45;;;;;;;-145.07;100.00;61000.34;5112315;28;20048;-50
2023/06/27 07:13:22;;;;;;;14.93;2.72;;;;;;;-145.07;100.00;61000.34;5108535;28;20054;-51
2023/06/27 07:15:49;;;;;;;6.30;1.80;;;;;;;-145.07;100.00;61000.34;5103074;28;20158;-51
2023/06/27 07:18:16;;;;;;;16.17;2.20;;;;;;;-145.07;100.00;61000.34;5101292;28;20044;-51
2023/06/27 07:20:42;;;;;;;14.32;2.40;;;;;;;-145.07;100.00;61000.34;5101335;28;20134;-51
2023/06/27 07:23:09;;;;;;;10.52;2.17;;;;;;;-145.07;100.00;61000.34;5112398;28;20058;-51
2023/06/27 07:25:38;;;;;;;9.30;2.35;;;;;;;-145.07;100.00;61000.34;5105766;28;20048;-52
2023/06/27 07:28:05;;;;;;;6.45;1.55;;;;;;;-145.07;100.00;61000.34;5096025;28;20043;-51
2023/06/27 07:30:31;;;;;;;7.30;1.90;;;;;;;-145.07;100.00;61000.34;5107495;28;20363;-51
2023/06/27 07:32:58;;;;;;;9.23;1.70;;;;;;;-145.07;100.00;61000.34;5099522;28;20369;-51
2023/06/27 07:35:24;;;;;;;7.47;1.58;;;;;;;-145.07;100.00;61000.34;5109287;28;20050;-51
2023/06/27 07:37:51;;;;;;;11.65;1.60;;;;;;;-145.07;100.00;61000.34;5114001;28;20054;-51
2023/06/27 07:40:17;;;;;;;10.40;2.33;;;;;;;-145.07;100.00;61000.34;5098200;28;20127;-51
2023/06/27 07:42:44;;;;;;;8.25;2.85;;;;;;;-145.07;100.00;61000.34;5113609;28;20058;-51
2023/06/27 07:45:10;;;;;;;9.52;1.40;;;;;;;-145.07;100.00;61000.34;5102360;28;20044;-51
2023/06/27 07:47:37;;;;;;;9.18;1.83;;;;;;;-145.07;100.00;61000.34;5112944;28;20449;-52
2023/06/27 07:50:04;;;;;;;14.70;1.60;;;;;;;-145.07;100.00;61000.34;5117821;27;20236;-51
2023/06/27 07:52:31;;;;;;;14.35;1.75;;;;;;;-145.07;100.00;61000.34;5135891;27;20051;-52
2023/06/27 07:54:57;;;;;;;11.63;1.50;;;;;;;-145.07;100.00;61000.34;5135808;27;20051;-51
2023/06/27 07:57:24;;;;;;;7.05;1.75;;;;;;;-145.07;100.00;61000.34;5119499;27;20036;-52
2023/06/27 07:59:50;;;;;;;8.85;2.28;;;;;;;-145.07;100.00;61000.34;5111109;28;20043;-51
2023/06/27 08:02:17;;;;;;;16.67;2.20;;;;;;;-145.07;100.00;61000.34;5122195;27;20081;-51
2023/06/27 08:04:43;;;;;;;4.60;1.23;;;;;;;-145.07;100.00;61000.34;5135572;27;20047;-51
2023/06/27 08:07:10;;;;;;;13.32;2.80;;;;;;;-145.07;100.00;61000.34;5111963;27;20043;-51
2023/06/27 08:09:37;;;;;;;10.30;1.45;;;;;;;-145.07;100.00;61000.34;5115322;28;20055;-51
2023/06/27 08:12:06;;;;;;;12.52;2.47;;;;;;;-145.07;100.00;61000.34;5114506;28;20370;-51
2023/06/27 08:14:32;;;;;;;9.57;2.63;;;;;;;-145.07;100.00;61000.34;5114960;28;20062;-51
2023/06/27 08:16:59;;;;;;;8.48;1.73;;;;;;;-145.07;100.00;61000.34;5107497;28;20069;-51
2023/06/27 08:19:27;;;;;;;3.10;1.25;;;;;;;-145.07;100.00;61000.34;5110185;28;20054;-51
2023/06/27 08:21:53;;;;;;;3.47;1.05;;;;;;;-145.07;100.00;61000.34;5094470;28;20052;-51
2023/06/27 08:24:20;;;;;;;12.43;2.35;;;;;;;-145.07;100.00;61000.34;5096617;28;20059;-51
2023/06/27 08:26:49;;;;;;;6.88;1.05;;;;;;;-145.07;100.00;61000.34;5094204;28;20051;-51
2023/06/27 08:29:16;;;;;;;9.75;1.30;;;;;;;-145.07;100.00;61000.34;5109826;28;20093;-51
2023/06/27 08:31:43;;;;;;;6.40;1.55;;;;;;;-145.07;100.00;61000.34;5114615;28;20127;-51
2023/06/27 08:34:09;;;;;;;6.63;1.40;;;;;;;-145.07;100.00;61000.34;5103370;28;20044;-51
2023/06/27 08:36:36;;;;;;;4.82;1.15;;;;;;;-145.07;100.00;61000.34;5114006;28;20110;-52
2023/06/27 08:39:03;;;;;;;5.28;1.23;;;;;;;-145.07;100.00;61000.34;5114293;28;20083;-51
2023/06/27 08:41:30;;;;;;;10.10;1.52;;;;;;;-145.07;100.00;61000.34;5114589;28;20593;-51
2023/06/27 08:43:56;;;;;;;6.30;1.90;;;;;;;-145.07;100.00;61000.34;5113212;27;20411;-51
2023/06/27 08:46:23;;;;;;;11.95;2.10;;;;;;;-145.07;100.00;61000.34;5134459;27;20126;-51
2023/06/27 08:48:52;;;;;;;5.63;1.35;;;;;;;-145.07;100.00;61000.34;5134935;27;20167;-51
2023/06/27 08:51:21;;;;;;;7.60;1.83;;;;;;;-145.07;100.00;61000.34;5110582;28;20119;-51
2023/06/27 08:53:49;;;;;;;12.25;1.20;;;;;;;-145.07;100.00;61000.34;5094131;28;20052;-51
2023/06/27 08:56:18;;;;;;;4.78;1.38;;;;;;;-145.07;100.00;61000.34;5093409;28;20055;-51
2023/06/27 08:58:49;;;;;;;8.40;1.80;;;;;;;-145.07;100.00;61000.34;5093842;28;20427;-51
2023/06/27 09:01:16;;;;;;;8.60;1.70;;;;;;;-145.07;100.00;61000.34;5093566;28;20131;-51
2023/06/27 09:03:42;;;;;;;3.72;1.20;;;;;;;-145.07;100.00;61000.34;5111154;28;20069;-52
2023/06/27 09:06:12;;;;;;;5.72;1.35;;;;;;;-145.07;100.00;61000.34;5100321;28;20421;-51
2023/06/27 09:08:39;;;;;;;4.03;0.98;;;;;;;-145.07;100.00;61000.34;5096103;28;20167;-52
2023/06/27 09:11:09;;;;;;;4.65;1.38;;;;;;;-145.07;100.00;61000.34;5099788;27;20446;-50
2023/06/27 09:13:37;;;;;;;7.00;1.45;;;;;;;-145.07;100.00;61000.34;5113798;28;20055;-50
2023/06/27 09:16:05;;;;;;;6.93;1.20;;;;;;;-145.07;100.00;61000.34;5102547;28;20043;-50
2023/06/27 09:18:37;;;;;;;4.13;1.13;;;;;;;-145.07;100.00;61000.34;5102632;28;20048;-51
2023/06/27 09:21:04;;;;;;;4.78;1.05;;;;;;;-145.07;100.00;61000.34;5099110;28;20432;-50
2023/06/27 09:23:31;;;;;;;5.43;1.10;;;;;;;-145.07;100.00;61000.34;5113465;28;20452;-51
2023/06/27 09:26:11;;;;;;;9.10;1.65;;;;;;;-145.07;100.00;61000.34;5099190;28;20148;-50
2023/06/27 09:28:51;;;;;;;3.28;1.45;;;;;;;-145.07;100.00;61000.34;5108082;28;20050;-51
2023/06/27 09:31:21;;;;;;;5.70;1.23;;;;;;;-145.07;100.00;61000.34;5103679;28;20044;-50
2023/06/27 09:33:48;;;;;;;5.85;1.52;;;;;;;-145.07;100.00;61000.34;5127578;27;20642;-51
2023/06/27 09:36:33;;;;;;;3.97;0.95;;;;;;;-145.07;100.00;61000.34;5130005;27;20047;-50
2023/06/27 09:39:04;;;;;;;5.85;1.23;;;;;;;-145.07;100.00;61000.34;5110232;28;20105;-50
2023/06/27 09:41:42;;;;;;;2.38;0.90;;;;;;;-145.07;100.00;61000.34;5105011;28;20087;-50
2023/06/27 09:44:23;;;;;;;4.22;1.00;;;;;;;-145.07;100.00;61000.34;5091847;28;20052;-50
2023/06/27 09:46:54;;;;;;;12.43;2.20;;;;;;;-145.07;100.00;61000.34;5096743;28;20067;-50
2023/06/27 09:49:22;;;;;;;5.20;0.85;;;;;;;-145.07;100.00;61000.34;5109173;28;20511;-50
2023/06/27 09:51:50;;;;;;;4.53;0.82;;;;;;;-145.07;100.00;61000.34;5113302;28;20062;-50
2023/06/27 09:54:21;;;;;;;6.13;2.15;;;;;;;-145.07;100.00;61000.34;5112657;28;20051;-50
2023/06/27 09:56:51;;;;;;;;;;;;;;;-145.07;100.00;61000.34;5097139;28;20051;-50
2023/06/27 09:59:20;;;;;;;2.92;1.08;;;;;;;-145.07;100.00;61000.34;5093242;28;20556;-50
2023/06/27 10:01:51;;;;;;;2.72;1.10;;;;;;;-145.07;100.00;61000.34;5091898;28;20056;-51
2023/06/27 10:04:18;;;;;;;8.18;1.92;;;;;;;-145.07;100.00;61000.34;5091699;28;20452;-50
2023/06/27 10:06:45;;;;;;;7.35;2.78;;;;;;;-145.07;100.00;61000.34;5093344;28;20127;-50
2023/06/27 10:09:12;;;;;;;4.45;1.50;;;;;;;-145.07;100.00;61000.34;5093137;28;20059;-49
2023/06/27 10:11:39;;;;;;;2.95;1.08;;;;;;;-145.07;100.00;61000.34;5092700;28;20075;-51
2023/06/27 10:14:07;;;;;;;4.95;1.02;;;;;;;-145.07;100.00;61000.34;5097473;28;20112;-51
2023/06/27 10:16:34;;;;;;;5.78;1.17;;;;;;;-145.07;100.00;61000.34;5092492;28;20052;-51
2023/06/27 10:19:02;;;;;;;7.15;2.75;;;;;;;-145.07;100.00;61000.34;5092842;28;20066;-50
2023/06/27 10:21:30;;;;;;;5.72;1.30;;;;;;;-145.07;100.00;61000.34;5091912;28;20044;-49
2023/06/27 10:23:59;;;;;;;4.15;1.13;;;;;;;-145.07;100.00;61000.34;5105148;28;20051;-49
2023/06/27 10:26:27;;;;;;;3.45;1.20;;;;;;;-145.07;100.00;61000.34;5113491;28;20128;-51
2023/06/27 10:28:54;;;;;;;6.10;1.70;;;;;;;-145.07;100.00;61000.34;5113523;28;20399;-51
2023/06/27 10:31:37;;;;;;;17.42;2.78;;;;;;;-145.07;100.00;61000.34;5104448;28;20048;-50
2023/06/27 10:34:04;;;;;;;11.85;2.40;;;;;;;-145.07;100.00;61000.34;5102688;28;20048;-51
2023/06/27 10:37:13;;;;;;;11.25;2.00;;;;;;;-145.07;100.00;61000.34;5091384;28;20138;-51
2023/06/27 10:39:41;;;;;;;7.00;2.75;;;;;;;-145.07;100.00;61000.34;5005120;28;20080;-51
2023/06/27 10:42:18;;;;;;;5.45;1.35;;;;;;;-145.07;100.00;61000.34;5025753;28;20053;-50
2023/06/27 10:44:53;;;;;;;4.13;1.63;;;;;;;-145.07;100.00;61000.34;5068909;28;20112;-51
2023/06/27 10:47:20;;;;;;;5.10;1.45;;;;;;;-145.07;100.00;61000.34;5096072;28;20039;-51
2023/06/27 10:49:48;;;;;;;4.90;1.48;;;;;;;-145.07;100.00;61000.34;5099186;28;20048;-50
2023/06/27 10:52:25;;;;;;;4.22;1.65;;;;;;;-145.07;100.00;61000.34;5102224;28;20101;-50
2023/06/27 10:55:13;;;;;;;3.50;1.65;;;;;;;-145.07;100.00;61000.34;5097328;28;20079;-52
2023/06/27 10:57:42;;;;;;;7.03;1.65;;;;;;;-145.07;100.00;61000.34;5098637;28;20052;-51
2023/06/27 11:00:13;;;;;;;3.65;2.00;;;;;;;-145.07;100.00;61000.34;5105632;28;20051;-51
2023/06/27 11:02:45;;;;;;;3.88;1.88;;;;;;;-145.07;100.00;61000.34;5100296;28;20052;-51
2023/06/27 11:05:16;;;;;;;4.50;1.45;;;;;;;-145.07;100.00;61000.34;5101178;28;20473;-50
2023/06/27 11:07:52;;;;;;;;;;;;;;;-145.07;100.00;61000.34;5100264;28;20470;-51
2023/06/27 11:10:24;;;;;;;4.55;1.77;;;;;;;-145.07;100.00;61000.34;5098199;28;20301;-51
2023/06/27 11:13:11;;;;;;;3.65;1.58;;;;;;;-145.07;100.00;61000.34;5100649;28;20047;-51